Bahia Uno — ECFT — position and weather

sailwx.info

Track history (hours):
 
Tides and Currents Weather Stations Pressure Air Temp Water Temp Dewpoint Dewpoint Depression Visibility Wind Speed Wind Dir Waves Ship Positions

Bahia Uno

Last reported at 2017-Mar-26 06:33 UTC. Time now 2017-Mar-26 07:24 UTC.
Position N 36°10' W 005°23'.

Length 70 m; draft 5.5 m.

Type: Ship. MMSI: 224127820.

Date/timePositionNaut miles runAvg speedWind from/ knotsBaromVisibWave heightAir tempDewpointWater temp
2017-Mar-26 06:33N 36°10' W 005°23'0 0.0
2017-Mar-26 05:25N 36°10' W 005°23'0 0.2
2017-Mar-26 04:31N 36°10' W 005°23'4 3.4
2017-Mar-26 03:27N 36°07' W 005°25'0 0.2
2017-Mar-26 02:33N 36°06' W 005°24'0 0.0
2017-Mar-26 01:33N 36°06' W 005°24'0 0.0
2017-Mar-26 00:16N 36°06' W 005°24'0 0.0
2017-Mar-25 23:33N 36°06' W 005°24'1 0.0
2017-Mar-24 21:33N 36°06' W 005°24'0 0.0
2017-Mar-24 20:33N 36°06' W 005°24'3 0.2
2017-Mar-24 06:18N 36°09' W 005°26'3 3.4
2017-Mar-24 05:21N 36°06' W 005°25'0 0.1
2017-Mar-24 04:32N 36°06' W 005°25'0 0.1
2017-Mar-24 03:33N 36°06' W 005°25'0 0.0
2017-Mar-24 02:25N 36°06' W 005°25'0 0.0
2017-Mar-24 00:32N 36°06' W 005°25'0 0.0
2017-Mar-23 15:13N 36°06' W 005°24'1 0.8
2017-Mar-23 14:33N 36°05' W 005°24'0 0.1
2017-Mar-23 13:33N 36°05' W 005°25'0 0.1
2017-Mar-23 12:33N 36°05' W 005°24'0 0.0
2017-Mar-23 11:33N 36°05' W 005°24'1 1.2
2017-Mar-23 10:33N 36°06' W 005°25'0 0.0
2017-Mar-23 09:33N 36°06' W 005°25'0 0.1
2017-Mar-23 08:33N 36°06' W 005°25'1 0.7
2017-Mar-23 07:32N 36°06' W 005°24'0 0.0
2017-Mar-23 06:33N 36°06' W 005°24'0 0.1
2017-Mar-23 05:33N 36°06' W 005°24'0 0.0
2017-Mar-23 04:33N 36°06' W 005°24'0 0.1
2017-Mar-23 03:33N 36°06' W 005°24'0 0.1
2017-Mar-23 02:33N 36°06' W 005°24'0 0.0
2017-Mar-23 01:33N 36°06' W 005°24'0 0.0
2017-Mar-23 00:33N 36°06' W 005°24'0 0.1
2017-Mar-22 23:33N 36°06' W 005°24'3 2.7
2017-Mar-22 22:33N 36°08' W 005°26'0 0.0
2017-Mar-22 21:33N 36°08' W 005°26'0 0.0
2017-Mar-22 20:33N 36°08' W 005°26'0 0.0
2017-Mar-22 19:33N 36°08' W 005°26'0 0.0
2017-Mar-22 18:33N 36°08' W 005°26'0 0.0
2017-Mar-22 17:33N 36°08' W 005°26'0 0.0
2017-Mar-22 16:33N 36°08' W 005°26'0 0.0
2017-Mar-22 15:33N 36°08' W 005°26'0 0.4
2017-Mar-22 14:33N 36°08' W 005°25'3 3.0
2017-Mar-22 13:33N 36°05' W 005°25'0 0.1
2017-Mar-22 12:33N 36°05' W 005°25'0 0.0
2017-Mar-22 11:33N 36°05' W 005°25'1 0.6
2017-Mar-22 10:33N 36°05' W 005°24'0 0.0
2017-Mar-22 09:33N 36°05' W 005°24'0 0.0
2017-Mar-22 08:33N 36°05' W 005°24'0 0.0
2017-Mar-22 07:33N 36°05' W 005°24'0 0.0
2017-Mar-22 06:33N 36°05' W 005°24'0 0.0
2017-Mar-22 05:33N 36°05' W 005°24'4 3.6
2017-Mar-22 04:34N 36°09' W 005°26'0 0.3
2017-Mar-22 03:33N 36°08' W 005°26'0 0.0
2017-Mar-22 02:33N 36°08' W 005°26'0 0.0
2017-Mar-22 01:33N 36°08' W 005°26'0 0.0
2017-Mar-22 00:33N 36°08' W 005°26'0 0.0
2017-Mar-21 23:33N 36°08' W 005°26'0 0.0
2017-Mar-21 22:33N 36°08' W 005°26'0 0.0
2017-Mar-21 21:33N 36°08' W 005°26'0 0.0
2017-Mar-21 20:33N 36°08' W 005°26'0 0.0
2017-Mar-21 19:33N 36°08' W 005°26'0 0.0
2017-Mar-21 18:33N 36°08' W 005°26'0 0.0
2017-Mar-21 17:33N 36°08' W 005°26'0 0.0
2017-Mar-21 16:33N 36°08' W 005°26'2 2.4
2017-Mar-21 15:33N 36°06' W 005°25'1 0.9
2017-Mar-21 14:33N 36°05' W 005°24'0 0.0
2017-Mar-21 13:33N 36°05' W 005°24'0 0.0
2017-Mar-21 12:33N 36°05' W 005°24'0 0.1
2017-Mar-21 11:33N 36°05' W 005°24'1 1.4
2017-Mar-21 10:33N 36°06' W 005°25'3 3.2
2017-Mar-21 09:33N 36°09' W 005°26'0 0.0
2017-Mar-21 08:33N 36°09' W 005°26'0 0.0
2017-Mar-21 07:33N 36°09' W 005°26'0 0.0
2017-Mar-21 06:33N 36°09' W 005°26'0 0.2
2017-Mar-21 05:33N 36°09' W 005°26'1 0.9
2017-Mar-21 04:33N 36°08' W 005°26'0 0.0
2017-Mar-21 03:33N 36°08' W 005°26'0 0.0
2017-Mar-21 02:33N 36°08' W 005°26'0 0.0
2017-Mar-21 01:33N 36°08' W 005°26'0 0.0
2017-Mar-21 00:33N 36°08' W 005°26'0 0.0
2017-Mar-20 23:33N 36°08' W 005°26'0 0.0
2017-Mar-20 22:33N 36°08' W 005°26'1 0.6
2017-Mar-20 21:33N 36°08' W 005°25'0 0.0
2017-Mar-20 20:33N 36°08' W 005°25'0 0.5
2017-Mar-20 19:33N 36°08' W 005°25'1 1.1
2017-Mar-20 18:33N 36°09' W 005°26'0 0.0
2017-Mar-20 17:33N 36°09' W 005°26'0 0.0
2017-Mar-20 16:33N 36°09' W 005°26'0 0.0
2017-Mar-20 15:33N 36°09' W 005°26'0 0.1
2017-Mar-20 14:33N 36°10' W 005°26'0 0.0
2017-Mar-20 13:33N 36°09' W 005°26'1 1.1
2017-Mar-20 12:33N 36°08' W 005°26'0 0.0
2017-Mar-20 11:33N 36°08' W 005°26'0 0.0
2017-Mar-20 10:33N 36°08' W 005°26'0 0.0
2017-Mar-20 09:33N 36°08' W 005°26'0 0.0
2017-Mar-20 08:33N 36°08' W 005°26'0 0.0
2017-Mar-20 07:33N 36°08' W 005°26'0 0.0
2017-Mar-20 06:33N 36°08' W 005°26'3 3.0
2017-Mar-20 05:33N 36°06' W 005°24'0 0.0
2017-Mar-20 04:33N 36°06' W 005°24'0 0.0
2017-Mar-20 03:33N 36°06' W 005°24'0 0.0
2017-Mar-20 02:33N 36°06' W 005°24'0 0.0
2017-Mar-20 01:33N 36°06' W 005°24'0 0.0
2017-Mar-20 00:33N 36°06' W 005°24'1 0.9
2017-Mar-19 23:34N 36°05' W 005°24'0 0.0
2017-Mar-19 22:33N 36°05' W 005°24'0 0.0
2017-Mar-19 21:33N 36°05' W 005°24'0 0.0
2017-Mar-19 20:33N 36°05' W 005°24'0 0.1
2017-Mar-19 19:33N 36°05' W 005°24'1 0.6
2017-Mar-19 18:33N 36°06' W 005°24'4 4.1
2017-Mar-19 17:33N 36°10' W 005°25'0 0.0
2017-Mar-19 16:33N 36°10' W 005°25'0 0.0
2017-Mar-19 15:33N 36°10' W 005°25'0 0.0
2017-Mar-19 14:33N 36°10' W 005°25'0 0.0
2017-Mar-19 13:33N 36°10' W 005°25'0 0.0
2017-Mar-19 12:33N 36°10' W 005°25'0 0.0
2017-Mar-19 11:33N 36°10' W 005°25'0 0.3
2017-Mar-19 10:33N 36°09' W 005°25'1 1.3
2017-Mar-19 09:33N 36°08' W 005°26'0 0.0
2017-Mar-19 08:33N 36°08' W 005°26'0 0.0
2017-Mar-19 07:33N 36°08' W 005°26'0 0.0
2017-Mar-19 06:33N 36°08' W 005°26'0 0.0
2017-Mar-19 05:33N 36°08' W 005°26'0 0.0
2017-Mar-19 04:33N 36°08' W 005°26'0 0.0
2017-Mar-19 03:33N 36°08' W 005°26'0 0.0
2017-Mar-19 02:33N 36°08' W 005°26'0 0.0
2017-Mar-19 01:33N 36°08' W 005°26'0 0.0
2017-Mar-19 00:33N 36°08' W 005°26'0 0.0
2017-Mar-18 23:33N 36°08' W 005°26'0 0.0
2017-Mar-18 22:33N 36°08' W 005°26'0 0.0
2017-Mar-18 21:33N 36°08' W 005°26'0 0.0
2017-Mar-18 20:33N 36°08' W 005°26'0 0.0
2017-Mar-18 19:33N 36°08' W 005°26'0 0.1
2017-Mar-18 18:33N 36°08' W 005°26'2 2.2
2017-Mar-18 17:33N 36°10' W 005°25'0 0.0
2017-Mar-18 16:33N 36°10' W 005°25'1 0.9
2017-Mar-18 15:33N 36°10' W 005°25'0 0.0
2017-Mar-18 14:33N 36°10' W 005°25'0 0.0
2017-Mar-18 13:33N 36°10' W 005°26'0 0.0
2017-Mar-18 12:33N 36°10' W 005°26'1 0.6
2017-Mar-18 11:33N 36°09' W 005°26'1 1.0
2017-Mar-18 10:33N 36°08' W 005°26'0 0.0
2017-Mar-18 09:33N 36°08' W 005°26'0 0.0
2017-Mar-18 08:33N 36°08' W 005°26'0 0.0
2017-Mar-18 07:33N 36°08' W 005°26'0 0.0
2017-Mar-18 06:33N 36°08' W 005°26'0 0.0
2017-Mar-18 05:33N 36°08' W 005°26'0 0.0
2017-Mar-18 04:33N 36°08' W 005°26'0 0.0
2017-Mar-18 03:33N 36°08' W 005°26'0 0.0
2017-Mar-18 02:33N 36°08' W 005°26'0 0.0
2017-Mar-18 01:33N 36°08' W 005°26'0 0.0
2017-Mar-18 00:33N 36°08' W 005°26'0 0.0
2017-Mar-17 23:33N 36°08' W 005°26'0 0.0
2017-Mar-17 22:33N 36°08' W 005°26'0 0.0
2017-Mar-17 21:33N 36°08' W 005°26'0 0.0
2017-Mar-17 20:33N 36°08' W 005°26'1 0.9
2017-Mar-17 19:33N 36°09' W 005°26'0 0.0
2017-Mar-17 18:33N 36°09' W 005°26'1 0.8
2017-Mar-17 17:33N 36°08' W 005°26'0 0.0
2017-Mar-17 16:33N 36°08' W 005°26'0 0.0
2017-Mar-17 15:33N 36°08' W 005°26'0 0.0
2017-Mar-17 14:33N 36°08' W 005°26'0 0.0
2017-Mar-17 13:33N 36°08' W 005°26'0 0.0
2017-Mar-17 12:33N 36°08' W 005°26'0 0.0
2017-Mar-17 11:33N 36°08' W 005°26'0 0.0
2017-Mar-17 10:33N 36°08' W 005°26'0 0.0
2017-Mar-17 09:33N 36°08' W 005°26'0 0.0
2017-Mar-17 08:33N 36°08' W 005°26'0 0.0
2017-Mar-17 07:33N 36°08' W 005°26'0 0.0
2017-Mar-17 06:33N 36°08' W 005°26'0 0.0
2017-Mar-17 05:33N 36°08' W 005°26'0 0.0
2017-Mar-17 04:33N 36°08' W 005°26'0 0.0
2017-Mar-17 03:33N 36°08' W 005°26'0 0.0
2017-Mar-17 02:33N 36°08' W 005°26'0 0.0
2017-Mar-17 01:33N 36°08' W 005°26'0 0.0
2017-Mar-17 00:33N 36°08' W 005°26'0 0.0
2017-Mar-16 23:33N 36°08' W 005°26'0 0.0
2017-Mar-16 22:33N 36°08' W 005°26'0 0.0
2017-Mar-16 21:33N 36°08' W 005°26'0 0.0
2017-Mar-16 20:33N 36°08' W 005°26'0 0.0
2017-Mar-16 19:33N 36°08' W 005°26'0 0.0
2017-Mar-16 18:33N 36°08' W 005°26'0 0.0
2017-Mar-16 17:33N 36°08' W 005°26'0 0.0
2017-Mar-16 16:33N 36°08' W 005°26'0 0.0
2017-Mar-16 15:33N 36°08' W 005°26'0 0.0
2017-Mar-16 14:33N 36°08' W 005°26'0 0.0
2017-Mar-16 13:33N 36°08' W 005°26'0 0.0
2017-Mar-16 12:33N 36°08' W 005°26'0 0.0
2017-Mar-16 11:33N 36°08' W 005°26'0 0.0
2017-Mar-16 10:33N 36°08' W 005°26'0 0.0
2017-Mar-16 09:33N 36°08' W 005°26'0 0.0
2017-Mar-16 07:34N 36°08' W 005°26'0 0.0
2017-Mar-16 06:33N 36°08' W 005°26'  
Track history (hours):
 
Tides and Currents Weather Stations Pressure Air Temp Water Temp Dewpoint Dewpoint Depression Visibility Wind Speed Wind Dir Waves Ship Positions

Bahia Uno

Last reported at 2017-Mar-26 06:33 UTC. Time now 2017-Mar-26 07:24 UTC.
Position N 36°10' W 005°23'.

Length 70 m; draft 5.5 m.

Type: Ship. MMSI: 224127820.

Date/timePositionNaut miles runAvg speedWind from/ knotsBaromVisibWave heightAir tempDewpointWater temp
2017-Mar-26 06:33N 36°10' W 005°23'0 0.0
2017-Mar-26 05:25N 36°10' W 005°23'0 0.2
2017-Mar-26 04:31N 36°10' W 005°23'4 3.4
2017-Mar-26 03:27N 36°07' W 005°25'0 0.2
2017-Mar-26 02:33N 36°06' W 005°24'0 0.0
2017-Mar-26 01:33N 36°06' W 005°24'0 0.0
2017-Mar-26 00:16N 36°06' W 005°24'0 0.0
2017-Mar-25 23:33N 36°06' W 005°24'1 0.0
2017-Mar-24 21:33N 36°06' W 005°24'0 0.0
2017-Mar-24 20:33N 36°06' W 005°24'3 0.2
2017-Mar-24 06:18N 36°09' W 005°26'3 3.4
2017-Mar-24 05:21N 36°06' W 005°25'0 0.1
2017-Mar-24 04:32N 36°06' W 005°25'0 0.1
2017-Mar-24 03:33N 36°06' W 005°25'0 0.0
2017-Mar-24 02:25N 36°06' W 005°25'0 0.0
2017-Mar-24 00:32N 36°06' W 005°25'0 0.0
2017-Mar-23 15:13N 36°06' W 005°24'1 0.8
2017-Mar-23 14:33N 36°05' W 005°24'0 0.1
2017-Mar-23 13:33N 36°05' W 005°25'0 0.1
2017-Mar-23 12:33N 36°05' W 005°24'0 0.0
2017-Mar-23 11:33N 36°05' W 005°24'1 1.2
2017-Mar-23 10:33N 36°06' W 005°25'0 0.0
2017-Mar-23 09:33N 36°06' W 005°25'0 0.1
2017-Mar-23 08:33N 36°06' W 005°25'1 0.7
2017-Mar-23 07:32N 36°06' W 005°24'0 0.0
2017-Mar-23 06:33N 36°06' W 005°24'0 0.1
2017-Mar-23 05:33N 36°06' W 005°24'0 0.0
2017-Mar-23 04:33N 36°06' W 005°24'0 0.1
2017-Mar-23 03:33N 36°06' W 005°24'0 0.1
2017-Mar-23 02:33N 36°06' W 005°24'0 0.0
2017-Mar-23 01:33N 36°06' W 005°24'0 0.0
2017-Mar-23 00:33N 36°06' W 005°24'0 0.1
2017-Mar-22 23:33N 36°06' W 005°24'3 2.7
2017-Mar-22 22:33N 36°08' W 005°26'0 0.0
2017-Mar-22 21:33N 36°08' W 005°26'0 0.0
2017-Mar-22 20:33N 36°08' W 005°26'0 0.0
2017-Mar-22 19:33N 36°08' W 005°26'0 0.0
2017-Mar-22 18:33N 36°08' W 005°26'0 0.0
2017-Mar-22 17:33N 36°08' W 005°26'0 0.0
2017-Mar-22 16:33N 36°08' W 005°26'0 0.0
2017-Mar-22 15:33N 36°08' W 005°26'0 0.4
2017-Mar-22 14:33N 36°08' W 005°25'3 3.0
2017-Mar-22 13:33N 36°05' W 005°25'0 0.1
2017-Mar-22 12:33N 36°05' W 005°25'0 0.0
2017-Mar-22 11:33N 36°05' W 005°25'1 0.6
2017-Mar-22 10:33N 36°05' W 005°24'0 0.0
2017-Mar-22 09:33N 36°05' W 005°24'0 0.0
2017-Mar-22 08:33N 36°05' W 005°24'0 0.0
2017-Mar-22 07:33N 36°05' W 005°24'0 0.0
2017-Mar-22 06:33N 36°05' W 005°24'0 0.0
2017-Mar-22 05:33N 36°05' W 005°24'4 3.6
2017-Mar-22 04:34N 36°09' W 005°26'0 0.3
2017-Mar-22 03:33N 36°08' W 005°26'0 0.0
2017-Mar-22 02:33N 36°08' W 005°26'0 0.0
2017-Mar-22 01:33N 36°08' W 005°26'0 0.0
2017-Mar-22 00:33N 36°08' W 005°26'0 0.0
2017-Mar-21 23:33N 36°08' W 005°26'0 0.0
2017-Mar-21 22:33N 36°08' W 005°26'0 0.0
2017-Mar-21 21:33N 36°08' W 005°26'0 0.0
2017-Mar-21 20:33N 36°08' W 005°26'0 0.0
2017-Mar-21 19:33N 36°08' W 005°26'0 0.0
2017-Mar-21 18:33N 36°08' W 005°26'0 0.0
2017-Mar-21 17:33N 36°08' W 005°26'0 0.0
2017-Mar-21 16:33N 36°08' W 005°26'2 2.4
2017-Mar-21 15:33N 36°06' W 005°25'1 0.9
2017-Mar-21 14:33N 36°05' W 005°24'0 0.0
2017-Mar-21 13:33N 36°05' W 005°24'0 0.0
2017-Mar-21 12:33N 36°05' W 005°24'0 0.1
2017-Mar-21 11:33N 36°05' W 005°24'1 1.4
2017-Mar-21 10:33N 36°06' W 005°25'3 3.2
2017-Mar-21 09:33N 36°09' W 005°26'0 0.0
2017-Mar-21 08:33N 36°09' W 005°26'0 0.0
2017-Mar-21 07:33N 36°09' W 005°26'0 0.0
2017-Mar-21 06:33N 36°09' W 005°26'0 0.2
2017-Mar-21 05:33N 36°09' W 005°26'1 0.9
2017-Mar-21 04:33N 36°08' W 005°26'0 0.0
2017-Mar-21 03:33N 36°08' W 005°26'0 0.0
2017-Mar-21 02:33N 36°08' W 005°26'0 0.0
2017-Mar-21 01:33N 36°08' W 005°26'0 0.0
2017-Mar-21 00:33N 36°08' W 005°26'0 0.0
2017-Mar-20 23:33N 36°08' W 005°26'0 0.0
2017-Mar-20 22:33N 36°08' W 005°26'1 0.6
2017-Mar-20 21:33N 36°08' W 005°25'0 0.0
2017-Mar-20 20:33N 36°08' W 005°25'0 0.5
2017-Mar-20 19:33N 36°08' W 005°25'1 1.1
2017-Mar-20 18:33N 36°09' W 005°26'0 0.0
2017-Mar-20 17:33N 36°09' W 005°26'0 0.0
2017-Mar-20 16:33N 36°09' W 005°26'0 0.0
2017-Mar-20 15:33N 36°09' W 005°26'0 0.1
2017-Mar-20 14:33N 36°10' W 005°26'0 0.0
2017-Mar-20 13:33N 36°09' W 005°26'1 1.1
2017-Mar-20 12:33N 36°08' W 005°26'0 0.0
2017-Mar-20 11:33N 36°08' W 005°26'0 0.0
2017-Mar-20 10:33N 36°08' W 005°26'0 0.0
2017-Mar-20 09:33N 36°08' W 005°26'0 0.0
2017-Mar-20 08:33N 36°08' W 005°26'0 0.0
2017-Mar-20 07:33N 36°08' W 005°26'0 0.0
2017-Mar-20 06:33N 36°08' W 005°26'3 3.0
2017-Mar-20 05:33N 36°06' W 005°24'0 0.0
2017-Mar-20 04:33N 36°06' W 005°24'0 0.0
2017-Mar-20 03:33N 36°06' W 005°24'0 0.0
2017-Mar-20 02:33N 36°06' W 005°24'0 0.0
2017-Mar-20 01:33N 36°06' W 005°24'0 0.0
2017-Mar-20 00:33N 36°06' W 005°24'1 0.9
2017-Mar-19 23:34N 36°05' W 005°24'0 0.0
2017-Mar-19 22:33N 36°05' W 005°24'0 0.0
2017-Mar-19 21:33N 36°05' W 005°24'0 0.0
2017-Mar-19 20:33N 36°05' W 005°24'0 0.1
2017-Mar-19 19:33N 36°05' W 005°24'1 0.6
2017-Mar-19 18:33N 36°06' W 005°24'4 4.1
2017-Mar-19 17:33N 36°10' W 005°25'0 0.0
2017-Mar-19 16:33N 36°10' W 005°25'0 0.0
2017-Mar-19 15:33N 36°10' W 005°25'0 0.0
2017-Mar-19 14:33N 36°10' W 005°25'0 0.0
2017-Mar-19 13:33N 36°10' W 005°25'0 0.0
2017-Mar-19 12:33N 36°10' W 005°25'0 0.0
2017-Mar-19 11:33N 36°10' W 005°25'0 0.3
2017-Mar-19 10:33N 36°09' W 005°25'1 1.3
2017-Mar-19 09:33N 36°08' W 005°26'0 0.0
2017-Mar-19 08:33N 36°08' W 005°26'0 0.0
2017-Mar-19 07:33N 36°08' W 005°26'0 0.0
2017-Mar-19 06:33N 36°08' W 005°26'0 0.0
2017-Mar-19 05:33N 36°08' W 005°26'0 0.0
2017-Mar-19 04:33N 36°08' W 005°26'0 0.0
2017-Mar-19 03:33N 36°08' W 005°26'0 0.0
2017-Mar-19 02:33N 36°08' W 005°26'0 0.0
2017-Mar-19 01:33N 36°08' W 005°26'0 0.0
2017-Mar-19 00:33N 36°08' W 005°26'0 0.0
2017-Mar-18 23:33N 36°08' W 005°26'0 0.0
2017-Mar-18 22:33N 36°08' W 005°26'0 0.0
2017-Mar-18 21:33N 36°08' W 005°26'0 0.0
2017-Mar-18 20:33N 36°08' W 005°26'0 0.0
2017-Mar-18 19:33N 36°08' W 005°26'0 0.1
2017-Mar-18 18:33N 36°08' W 005°26'2 2.2
2017-Mar-18 17:33N 36°10' W 005°25'0 0.0
2017-Mar-18 16:33N 36°10' W 005°25'1 0.9
2017-Mar-18 15:33N 36°10' W 005°25'0 0.0
2017-Mar-18 14:33N 36°10' W 005°25'0 0.0
2017-Mar-18 13:33N 36°10' W 005°26'0 0.0
2017-Mar-18 12:33N 36°10' W 005°26'1 0.6
2017-Mar-18 11:33N 36°09' W 005°26'1 1.0
2017-Mar-18 10:33N 36°08' W 005°26'0 0.0
2017-Mar-18 09:33N 36°08' W 005°26'0 0.0
2017-Mar-18 08:33N 36°08' W 005°26'0 0.0
2017-Mar-18 07:33N 36°08' W 005°26'0 0.0
2017-Mar-18 06:33N 36°08' W 005°26'0 0.0
2017-Mar-18 05:33N 36°08' W 005°26'0 0.0
2017-Mar-18 04:33N 36°08' W 005°26'0 0.0
2017-Mar-18 03:33N 36°08' W 005°26'0 0.0
2017-Mar-18 02:33N 36°08' W 005°26'0 0.0
2017-Mar-18 01:33N 36°08' W 005°26'0 0.0
2017-Mar-18 00:33N 36°08' W 005°26'0 0.0
2017-Mar-17 23:33N 36°08' W 005°26'0 0.0
2017-Mar-17 22:33N 36°08' W 005°26'0 0.0
2017-Mar-17 21:33N 36°08' W 005°26'0 0.0
2017-Mar-17 20:33N 36°08' W 005°26'1 0.9
2017-Mar-17 19:33N 36°09' W 005°26'0 0.0
2017-Mar-17 18:33N 36°09' W 005°26'1 0.8
2017-Mar-17 17:33N 36°08' W 005°26'0 0.0
2017-Mar-17 16:33N 36°08' W 005°26'0 0.0
2017-Mar-17 15:33N 36°08' W 005°26'0 0.0
2017-Mar-17 14:33N 36°08' W 005°26'0 0.0
2017-Mar-17 13:33N 36°08' W 005°26'0 0.0
2017-Mar-17 12:33N 36°08' W 005°26'0 0.0
2017-Mar-17 11:33N 36°08' W 005°26'0 0.0
2017-Mar-17 10:33N 36°08' W 005°26'0 0.0
2017-Mar-17 09:33N 36°08' W 005°26'0 0.0
2017-Mar-17 08:33N 36°08' W 005°26'0 0.0
2017-Mar-17 07:33N 36°08' W 005°26'0 0.0
2017-Mar-17 06:33N 36°08' W 005°26'0 0.0
2017-Mar-17 05:33N 36°08' W 005°26'0 0.0
2017-Mar-17 04:33N 36°08' W 005°26'0 0.0
2017-Mar-17 03:33N 36°08' W 005°26'0 0.0
2017-Mar-17 02:33N 36°08' W 005°26'0 0.0
2017-Mar-17 01:33N 36°08' W 005°26'0 0.0
2017-Mar-17 00:33N 36°08' W 005°26'0 0.0
2017-Mar-16 23:33N 36°08' W 005°26'0 0.0
2017-Mar-16 22:33N 36°08' W 005°26'0 0.0
2017-Mar-16 21:33N 36°08' W 005°26'0 0.0
2017-Mar-16 20:33N 36°08' W 005°26'0 0.0
2017-Mar-16 19:33N 36°08' W 005°26'0 0.0
2017-Mar-16 18:33N 36°08' W 005°26'0 0.0
2017-Mar-16 17:33N 36°08' W 005°26'0 0.0
2017-Mar-16 16:33N 36°08' W 005°26'0 0.0
2017-Mar-16 15:33N 36°08' W 005°26'0 0.0
2017-Mar-16 14:33N 36°08' W 005°26'0 0.0
2017-Mar-16 13:33N 36°08' W 005°26'0 0.0
2017-Mar-16 12:33N 36°08' W 005°26'0 0.0
2017-Mar-16 11:33N 36°08' W 005°26'0 0.0
2017-Mar-16 10:33N 36°08' W 005°26'0 0.0
2017-Mar-16 09:33N 36°08' W 005°26'0 0.0
2017-Mar-16 07:34N 36°08' W 005°26'0 0.0
2017-Mar-16 06:33N 36°08' W 005°26'  

Dump ship's entire track history